Portada
METAR-TAF:

METAR-TAF

Aeropuertos :

Cartersville Airport

Cartersville, Georgia, Estados Unidos

latitud: 34-07-42N, longitud: 084-50-50W, altitud: 233 m

Observación

El informe se hizo hace 39 minutos, a las 18:53 UTC
Viento 3 kt con dirección variable
Temperatura 10°C
Humedad 82%
Presión 1014 hPa
Visibilidad: 16.1 km
Cielo nuboso a una altura de 1500 ft
Cielo cubierto a una altura de 2500 ft

METAR: KVPC 271853Z AUTO VRB03KT 10SM BKN015 OVC025 10/07 A2994 RMK AO2 SLP134 T01000072

Hora: 14:32 (19:32 UTC)


TAF: falta

Observaciones y pronósticos meteorológicos de más de 4000 aeropuertos (mensajes METAR y TAF).

Los puntos amarillos y rojos representan las estaciones disponibles.

Ponga el ratón en el punto deseado para ver el nombre de la estación.

Haga clic para ver las observaciones y los pronósticos meteorológicos.

Para cambiar el mapa : haga clic en los botones verdes con una cruz de color negro para hacer un zoom, en el botón verde con un guión para alejar o en las flechas verdes para mapas adyacentes.


METAR-TAF: